Airport View

Enter AWOS ICAO identifier for current METAR.

ex. KFNL

KSTF 262139Z AUTO 30007G15KT 272V332 10SM SCT035 BKN041 OVC049 07/01 A3013 RMK AO2

26 Feb 2020 21:24

Frequency: 118.975

Phone: 662-323-4966

Other Area AWOS: KGTR - KCBM - KNMM - KM40

TAF KGTR 261726Z 2618/2718 31013G20KT P6SM BKN020 FM262100 31014G21KT P6SM BKN050 FM270500 32005KT P6SM SKC